Time;durP1;ratioP1;P1;durP2;ratioP2;P2;SDS_P1;SDS_P2;PMS_P1;PMS_P2;Temp;Humidity;BMP_temperature;BMP_pressure;BME280_temperature;BME280_humidity;BME280_pressure;Samples;Min_cycle;Max_cycle;Signal;HPM_P1;HPM_P2
2022/09/24 00:01:15;;;;;;;11.88;5.13;;;;;;;7.24;63.72;94262.06;6168128;23;20060;-88
2022/09/24 00:03:46;;;;;;;10.35;4.78;;;;;;;7.21;64.22;94265.28;6168099;23;20023;-85
2022/09/24 00:06:13;;;;;;;13.27;6.00;;;;;;;7.16;64.50;94266.09;6167352;23;20008;-85
2022/09/24 00:08:40;;;;;;;17.33;5.03;;;;;;;7.09;64.62;94264.88;6166441;23;20025;-85
2022/09/24 00:11:10;;;;;;;11.13;4.90;;;;;;;7.05;64.79;94269.16;6166864;23;20026;-85
2022/09/24 00:13:35;;;;;;;8.80;4.78;;;;;;;6.98;64.86;94265.00;6166842;23;20013;-84
2022/09/24 00:16:04;;;;;;;11.38;5.72;;;;;;;6.91;65.18;94264.50;6167093;23;20009;-85
2022/09/24 00:18:29;;;;;;;9.98;5.28;;;;;;;6.83;65.26;94263.25;6166570;23;20081;-85
2022/09/24 00:20:56;;;;;;;11.15;5.18;;;;;;;6.82;65.60;94251.09;6166576;23;20012;-85
2022/09/24 00:23:21;;;;;;;10.90;5.25;;;;;;;6.79;65.75;94254.28;6166744;23;20191;-84
2022/09/24 00:28:32;;;;;;;12.13;5.75;;;;;;;6.80;66.26;94252.44;6166783;23;20011;-82
2022/09/24 00:31:03;;;;;;;9.20;5.10;;;;;;;6.80;65.96;94258.53;6165980;23;20013;-84
2022/09/24 00:33:28;;;;;;;9.20;4.88;;;;;;;6.81;66.17;94254.00;6166020;23;20017;-84
2022/09/24 00:36:03;;;;;;;9.13;5.70;;;;;;;6.81;65.88;94254.00;6166214;23;20001;-84
2022/09/24 00:38:29;;;;;;;10.45;4.47;;;;;;;6.84;66.07;94264.06;6166282;23;20001;-85
2022/09/24 00:40:55;;;;;;;9.45;5.28;;;;;;;6.83;66.07;94255.31;6166444;23;19997;-85
2022/09/24 00:43:27;;;;;;;9.18;5.55;;;;;;;6.81;65.88;94254.00;6166099;23;20009;-85
2022/09/24 00:46:00;;;;;;;9.73;4.40;;;;;;;6.80;66.31;94255.88;6166616;23;20001;-85
2022/09/24 00:48:25;;;;;;;9.30;5.28;;;;;;;6.77;66.17;94255.63;6166435;23;19993;-85
2022/09/24 00:50:51;;;;;;;8.32;4.57;;;;;;;6.77;66.44;94258.28;6166241;23;20053;-84
2022/09/24 00:53:21;;;;;;;9.95;5.07;;;;;;;6.70;66.49;94253.31;6166061;23;20028;-84
2022/09/24 00:55:51;;;;;;;7.72;4.10;;;;;;;6.62;66.46;94252.06;6165960;23;20001;-84
2022/09/24 00:58:17;;;;;;;8.02;4.38;;;;;;;6.65;66.67;94244.63;6165986;23;19997;-84
2022/09/24 01:00:43;;;;;;;7.88;4.50;;;;;;;6.62;66.47;94238.81;6166248;23;20025;-84
2022/09/24 01:03:21;;;;;;;8.40;4.60;;;;;;;6.65;66.74;94244.63;6166147;23;20008;-84
2022/09/24 01:05:46;;;;;;;9.82;4.65;;;;;;;6.61;66.41;94231.94;6165731;23;20012;-83
2022/09/24 01:08:16;;;;;;;8.20;4.88;;;;;;;6.59;66.83;94238.56;6165979;23;20001;-84
2022/09/24 01:10:47;;;;;;;9.75;4.50;;;;;;;6.57;66.84;94235.41;6165824;23;20004;-84
2022/09/24 01:13:51;;;;;;;8.83;4.30;;;;;;;6.60;67.29;94237.50;6166178;23;20191;-83
2022/09/24 01:16:27;;;;;;;7.25;4.13;;;;;;;6.58;67.02;94237.78;6159490;23;20020;-83
2022/09/24 01:19:04;;;;;;;6.22;3.90;;;;;;;6.52;66.95;94236.25;6165937;23;20342;-83
2022/09/24 01:21:41;;;;;;;7.47;4.43;;;;;;;6.52;67.01;94236.25;6165380;23;20002;-83
2022/09/24 01:24:43;;;;;;;8.57;4.40;;;;;;;6.49;67.07;94242.09;6165762;23;20001;-84
2022/09/24 01:27:18;;;;;;;8.65;4.22;;;;;;;6.46;67.25;94240.00;6165643;23;20315;-84
2022/09/24 01:30:05;;;;;;;7.45;4.13;;;;;;;6.40;67.32;94244.56;6165460;23;20005;-84
2022/09/24 01:32:56;;;;;;;6.85;4.40;;;;;;;6.40;67.39;94233.19;6164049;23;20048;-83
2022/09/24 01:35:30;;;;;;;10.18;5.10;;;;;;;6.38;67.42;94232.66;6166082;23;20001;-83
2022/09/24 01:38:08;;;;;;;6.47;3.83;;;;;;;6.35;67.54;94234.00;6164250;23;20044;-83
2022/09/24 01:40:35;;;;;;;7.90;4.18;;;;;;;6.35;67.27;94241.97;6165276;23;20012;-83
2022/09/24 01:43:04;;;;;;;8.13;4.57;;;;;;;6.31;67.63;94237.47;6165347;23;20232;-81
2022/09/24 01:45:30;;;;;;;6.38;3.95;;;;;;;6.28;67.58;94236.16;6165234;23;20001;-84
2022/09/24 01:47:59;;;;;;;7.53;4.32;;;;;;;6.27;67.71;94236.44;6164237;23;20117;-83
2022/09/24 01:50:27;;;;;;;11.55;4.63;;;;;;;6.25;67.71;94239.38;6165579;23;20008;-84
2022/09/24 01:53:09;;;;;;;8.15;5.35;;;;;;;6.22;67.71;94243.34;6163938;23;20005;-84
2022/09/24 01:55:40;;;;;;;9.77;4.40;;;;;;;6.18;67.56;94241.53;6165544;23;20191;-84
2022/09/24 01:58:09;;;;;;;6.90;4.32;;;;;;;6.14;67.84;94241.28;6165717;23;20002;-84
2022/09/24 02:00:41;;;;;;;6.90;4.25;;;;;;;6.10;67.78;94245.56;6165618;23;20197;-84
2022/09/24 02:03:12;;;;;;;9.60;4.75;;;;;;;6.09;68.12;94254.56;6165689;23;20036;-84
2022/09/24 02:05:47;;;;;;;8.60;4.28;;;;;;;6.08;67.89;94247.69;6165251;23;20002;-84
2022/09/24 02:08:33;;;;;;;7.35;4.38;;;;;;;6.07;68.12;94250.63;6164166;23;20005;-83
2022/09/24 02:11:03;;;;;;;7.80;4.53;;;;;;;6.04;68.18;94251.94;6165408;23;20024;-84
2022/09/24 02:13:38;;;;;;;6.30;3.83;;;;;;;6.03;68.25;94260.97;6165348;23;20006;-84
2022/09/24 02:16:06;;;;;;;11.65;4.85;;;;;;;6.02;68.37;94267.31;6165432;23;19998;-84
2022/09/24 02:18:37;;;;;;;7.10;4.35;;;;;;;6.01;68.05;94269.16;6165385;23;20047;-83
2022/09/24 02:21:09;;;;;;;10.18;4.80;;;;;;;5.99;68.07;94265.22;6164880;23;19998;-83
2022/09/24 02:23:41;;;;;;;7.00;4.82;;;;;;;6.00;67.65;94272.09;6165003;23;20191;-84
2022/09/24 02:26:08;;;;;;;9.45;5.00;;;;;;;5.99;67.98;94281.09;6165283;23;20001;-84
2022/09/24 02:28:34;;;;;;;10.77;4.57;;;;;;;5.95;68.10;94275.56;6165617;23;20035;-87
2022/09/24 02:31:26;;;;;;;8.20;4.53;;;;;;;5.94;68.34;94279.25;6165233;23;20314;-87
2022/09/24 02:36:42;;;;;;;11.43;5.03;;;;;;;5.88;68.25;94284.81;6164781;23;20303;-87
2022/09/24 02:39:08;;;;;;;6.72;4.47;;;;;;;5.82;68.32;94287.50;6165123;23;20001;-87
2022/09/24 02:41:34;;;;;;;7.05;3.92;;;;;;;5.82;68.68;94282.22;6165392;23;20009;-87
2022/09/24 02:44:00;;;;;;;7.15;4.82;;;;;;;5.87;68.68;94291.97;6165636;23;20231;-88
2022/09/24 02:46:26;;;;;;;7.95;4.35;;;;;;;5.83;68.67;94294.38;6165135;23;20025;-87
2022/09/24 02:48:51;;;;;;;6.20;4.13;;;;;;;5.85;68.68;94286.16;6165502;23;19998;-87
2022/09/24 02:51:20;;;;;;;8.48;4.93;;;;;;;5.85;68.87;94291.47;6165689;23;19998;-87
2022/09/24 02:53:49;;;;;;;6.85;4.68;;;;;;;5.82;68.62;94290.16;6165841;23;20001;-88
2022/09/24 02:56:17;;;;;;;7.82;5.00;;;;;;;5.81;68.61;94299.13;6165605;23;19998;-87
2022/09/24 02:58:43;;;;;;;9.70;5.25;;;;;;;5.79;68.82;94292.53;6166312;23;19994;-88
2022/09/24 03:01:11;;;;;;;10.20;5.22;;;;;;;5.76;68.80;94295.72;6165928;23;20052;-87
2022/09/24 03:03:37;;;;;;;10.48;5.45;;;;;;;5.78;69.03;94301.53;6165595;23;20025;-87
2022/09/24 03:06:02;;;;;;;7.82;5.05;;;;;;;5.74;69.00;94293.38;6166954;23;20346;-88
2022/09/24 03:08:29;;;;;;;9.63;6.45;;;;;;;5.74;69.01;94303.94;6167371;23;20056;-88
2022/09/24 03:10:54;;;;;;;10.90;5.70;;;;;;;5.71;69.10;94287.81;6167437;23;19993;-88
2022/09/24 03:13:21;;;;;;;6.57;4.18;;;;;;;5.67;68.99;94287.56;6167227;23;19998;-88
2022/09/24 03:15:46;;;;;;;8.98;5.60;;;;;;;5.67;69.14;94289.44;6167549;23;20008;-89
2022/09/24 03:18:12;;;;;;;9.00;6.25;;;;;;;5.66;69.04;94291.28;6167601;23;20001;-88
2022/09/24 03:20:38;;;;;;;7.65;5.13;;;;;;;5.64;69.64;94296.06;6167275;23;20005;-88
2022/09/24 03:23:04;;;;;;;8.25;4.97;;;;;;;5.63;69.74;94299.75;6167286;23;20056;-88
2022/09/24 03:25:30;;;;;;;9.45;4.70;;;;;;;5.58;69.66;94297.13;6165759;23;20001;-87
2022/09/24 03:27:55;;;;;;;9.45;5.05;;;;;;;5.61;69.51;94304.50;6166609;23;20001;-85
2022/09/24 03:33:05;;;;;;;7.32;4.50;;;;;;;5.59;69.81;94299.50;6167024;23;20009;-85
2022/09/24 03:35:30;;;;;;;8.23;4.20;;;;;;;5.54;69.91;94309.31;6166842;23;20010;-85
2022/09/24 03:37:56;;;;;;;6.93;4.40;;;;;;;5.53;69.87;94313.78;6166793;23;20044;-85
2022/09/24 03:40:21;;;;;;;7.45;4.35;;;;;;;5.50;69.92;94310.91;6166659;23;20020;-85
2022/09/24 03:42:50;;;;;;;7.07;4.32;;;;;;;5.49;69.87;94318.03;6165374;23;20040;-85
2022/09/24 03:45:15;;;;;;;8.05;4.53;;;;;;;5.49;69.90;94322.53;6166901;23;20000;-86
2022/09/24 03:47:41;;;;;;;7.88;4.30;;;;;;;5.49;69.93;94319.91;6167387;23;20001;-86
2022/09/24 03:50:10;;;;;;;7.18;4.32;;;;;;;5.45;70.26;94313.56;6167655;23;20048;-90
2022/09/24 03:52:39;;;;;;;6.07;4.15;;;;;;;5.42;70.53;94315.69;6166672;23;20002;-90
2022/09/24 03:55:05;;;;;;;6.75;4.28;;;;;;;5.39;70.60;94310.13;6166308;23;20065;-89
2022/09/24 03:57:30;;;;;;;8.70;4.07;;;;;;;5.40;70.66;94317.81;6167694;23;20005;-89
2022/09/24 03:59:57;;;;;;;6.32;4.07;;;;;;;5.37;70.48;94322.84;6167275;23;20006;-89
2022/09/24 04:02:23;;;;;;;6.60;4.40;;;;;;;5.35;70.36;94322.31;6165872;23;20001;-89
2022/09/24 04:04:49;;;;;;;7.40;4.82;;;;;;;5.34;70.58;94313.59;6166587;23;20044;-83
2022/09/24 04:07:17;;;;;;;9.88;4.45;;;;;;;5.33;70.75;94322.59;6166832;23;20006;-83
2022/09/24 04:09:43;;;;;;;8.02;4.72;;;;;;;5.34;70.51;94318.09;6166888;23;20009;-84
2022/09/24 04:12:08;;;;;;;7.55;4.72;;;;;;;5.32;70.47;94320.22;6165161;23;20021;-83
2022/09/24 04:14:34;;;;;;;10.73;5.38;;;;;;;5.30;70.58;94323.13;6166496;23;19998;-82
2022/09/24 04:16:59;;;;;;;7.88;4.45;;;;;;;5.25;70.67;94320.50;6165369;23;20009;-84
2022/09/24 04:19:25;;;;;;;8.27;4.88;;;;;;;5.27;70.44;94322.84;6166617;23;20199;-84
2022/09/24 04:21:51;;;;;;;9.98;4.80;;;;;;;5.19;70.92;94321.53;6166107;23;20002;-83
2022/09/24 04:24:19;;;;;;;9.85;5.30;;;;;;;5.21;70.66;94322.88;6166516;23;20013;-83
2022/09/24 04:26:47;;;;;;;8.50;4.80;;;;;;;5.21;70.86;94322.06;6166520;23;20001;-84
2022/09/24 04:29:12;;;;;;;10.20;5.22;;;;;;;5.20;70.90;94341.66;6166530;23;20235;-84
2022/09/24 04:31:39;;;;;;;8.15;5.00;;;;;;;5.15;70.90;94337.16;6166043;23;20005;-84
2022/09/24 04:34:04;;;;;;;7.63;4.30;;;;;;;5.19;70.61;94337.41;6166438;23;20195;-84
2022/09/24 04:36:30;;;;;;;9.95;5.22;;;;;;;5.20;70.95;94344.28;6166180;23;19998;-84
2022/09/24 04:38:56;;;;;;;8.85;5.10;;;;;;;5.18;70.78;94349.03;6166287;23;19999;-84
2022/09/24 04:41:24;;;;;;;8.65;5.90;;;;;;;5.15;70.85;94362.78;6166127;23;20008;-84
2022/09/24 04:43:50;;;;;;;12.00;5.47;;;;;;;5.13;71.24;94344.56;6166272;23;19997;-84
2022/09/24 04:46:18;;;;;;;10.80;5.10;;;;;;;5.17;71.53;94344.81;6164866;23;20002;-84
2022/09/24 04:48:44;;;;;;;10.10;5.88;;;;;;;5.17;71.55;94344.81;6166484;23;20048;-84
2022/09/24 04:51:09;;;;;;;8.07;5.20;;;;;;;5.17;71.79;94334.22;6166353;23;20002;-84
2022/09/24 04:53:36;;;;;;;9.65;5.55;;;;;;;5.29;71.55;94337.41;6166272;23;20005;-85
2022/09/24 04:56:10;;;;;;;13.98;6.32;;;;;;;5.33;71.75;94338.47;6164816;23;20005;-85
2022/09/24 04:58:37;;;;;;;10.27;5.78;;;;;;;5.35;72.03;94338.97;6166135;23;19997;-85
2022/09/24 05:01:03;;;;;;;14.35;5.95;;;;;;;5.37;72.14;94333.41;6165767;23;20006;-87
2022/09/24 05:03:32;;;;;;;12.27;6.75;;;;;;;5.45;72.05;94347.94;6166628;23;20027;-88
2022/09/24 05:05:58;;;;;;;11.40;6.53;;;;;;;5.46;72.46;94342.38;6166299;23;20025;-87
2022/09/24 05:08:25;;;;;;;11.52;5.82;;;;;;;5.54;72.40;94348.97;6166006;23;20025;-86
2022/09/24 05:10:52;;;;;;;18.35;9.48;;;;;;;5.63;72.46;94348.13;6164555;23;20069;-86
2022/09/24 05:13:18;;;;;;;17.30;8.45;;;;;;;5.70;72.28;94349.69;6166315;23;20001;-86
2022/09/24 05:15:44;;;;;;;24.17;10.48;;;;;;;5.77;72.24;94352.88;6166245;23;20004;-86
2022/09/24 05:18:12;;;;;;;20.85;10.73;;;;;;;5.80;72.03;94345.19;6166386;23;20064;-86
2022/09/24 05:20:38;;;;;;;24.88;10.43;;;;;;;5.92;72.23;94344.06;6164622;23;20069;-86
2022/09/24 05:23:04;;;;;;;15.45;8.77;;;;;;;6.03;72.14;94350.94;6164610;23;20014;-86
2022/09/24 05:25:29;;;;;;;16.15;9.02;;;;;;;6.09;71.95;94344.56;6166108;23;19997;-86
2022/09/24 05:27:58;;;;;;;17.15;8.88;;;;;;;6.15;71.52;94340.81;6165993;23;19997;-86
2022/09/24 05:30:25;;;;;;;19.35;9.70;;;;;;;6.24;71.65;94346.31;6165860;23;20005;-86
2022/09/24 05:32:51;;;;;;;18.02;8.50;;;;;;;6.31;71.30;94346.81;6166070;23;20001;-86
2022/09/24 05:35:18;;;;;;;16.40;8.52;;;;;;;6.42;70.89;94350.97;6166384;23;19997;-86
2022/09/24 05:37:44;;;;;;;18.05;9.25;;;;;;;6.53;70.67;94348.25;6164639;23;19997;-86
2022/09/24 05:43:03;;;;;;;21.13;8.40;;;;;;;6.67;70.33;94354.53;6166208;23;20179;-86
2022/09/24 05:45:30;;;;;;;13.82;8.18;;;;;;;6.70;70.38;94353.19;6165983;23;20300;-86
2022/09/24 05:47:58;;;;;;;19.83;7.72;;;;;;;6.85;70.09;94361.03;6166191;23;20200;-87
2022/09/24 05:50:24;;;;;;;18.60;7.95;;;;;;;6.94;69.82;94369.97;6165898;23;20004;-87
2022/09/24 05:52:49;;;;;;;17.15;8.55;;;;;;;7.01;69.11;94365.13;6166107;23;20064;-87
2022/09/24 05:55:15;;;;;;;14.88;9.55;;;;;;;7.02;68.89;94371.22;6165936;23;20005;-87
2022/09/24 05:57:40;;;;;;;13.48;8.18;;;;;;;7.04;68.42;94371.72;6166082;23;20005;-86
2022/09/24 06:00:06;;;;;;;17.50;8.52;;;;;;;7.06;68.75;94372.25;6165526;23;20048;-86
2022/09/24 06:02:32;;;;;;;32.60;8.93;;;;;;;7.04;68.41;94377.03;6165352;23;20004;-84
2022/09/24 06:05:00;;;;;;;12.82;7.90;;;;;;;7.01;68.34;94370.44;6165578;23;20196;-87
2022/09/24 06:07:25;;;;;;;10.80;7.05;;;;;;;7.13;68.18;94377.25;6164977;23;20001;-87
2022/09/24 06:09:53;;;;;;;12.98;8.27;;;;;;;7.14;68.30;94379.59;6165490;23;20294;-87
2022/09/24 06:12:22;;;;;;;23.58;9.48;;;;;;;7.17;68.55;94379.06;6165266;23;19993;-86
2022/09/24 06:14:48;;;;;;;30.15;9.02;;;;;;;7.26;68.17;94379.22;6165317;23;20044;-87
2022/09/24 06:17:16;;;;;;;23.23;9.85;;;;;;;7.34;67.87;94377.84;6165332;23;20010;-86
2022/09/24 06:19:41;;;;;;;18.77;8.18;;;;;;;7.41;67.74;94373.81;6165547;23;20003;-83
2022/09/24 06:22:07;;;;;;;12.40;7.57;;;;;;;7.47;67.46;94377.19;6165122;23;20001;-84
2022/09/24 06:24:35;;;;;;;9.50;6.40;;;;;;;7.56;66.93;94380.03;6164851;23;20044;-84
2022/09/24 06:27:01;;;;;;;11.80;6.38;;;;;;;7.63;66.77;94385.78;6165372;23;20342;-83
2022/09/24 06:29:29;;;;;;;8.73;6.38;;;;;;;7.76;66.86;94385.13;6165023;23;20002;-83
2022/09/24 06:31:55;;;;;;;11.57;6.68;;;;;;;7.89;66.38;94385.50;6163079;23;20005;-83
2022/09/24 06:34:20;;;;;;;11.60;6.57;;;;;;;7.96;66.17;94389.41;6163549;23;20009;-83
2022/09/24 06:36:48;;;;;;;16.38;6.55;;;;;;;7.96;65.46;94392.06;6165039;23;19994;-83
2022/09/24 06:39:17;;;;;;;10.48;5.80;;;;;;;8.06;64.66;94388.50;6163342;23;20017;-84
2022/09/24 06:41:42;;;;;;;15.35;6.60;;;;;;;8.16;63.91;94392.88;6164807;23;20180;-83
2022/09/24 06:44:08;;;;;;;12.30;7.13;;;;;;;8.27;63.40;94386.38;6164695;23;20021;-83
2022/09/24 06:46:33;;;;;;;9.00;5.95;;;;;;;8.31;63.17;94381.31;6165093;23;20016;-83
2022/09/24 06:48:58;;;;;;;13.40;6.78;;;;;;;8.36;63.38;94387.31;6164775;23;20000;-83
2022/09/24 06:51:24;;;;;;;12.63;6.47;;;;;;;8.49;63.22;94385.88;6165069;23;19997;-82
2022/09/24 06:53:51;;;;;;;10.57;6.15;;;;;;;8.63;63.25;94397.38;6165062;23;19998;-86
2022/09/24 06:56:16;;;;;;;11.48;7.30;;;;;;;8.77;61.82;94391.31;6164801;23;20069;-85
2022/09/24 06:58:42;;;;;;;13.15;7.00;;;;;;;8.86;61.42;94391.47;6165115;23;20299;-84
2022/09/24 07:01:07;;;;;;;18.27;7.80;;;;;;;8.93;60.87;94387.34;6164067;23;20028;-84
2022/09/24 07:03:37;;;;;;;13.60;7.43;;;;;;;9.02;60.89;94393.59;6164755;23;20005;-82
2022/09/24 07:06:05;;;;;;;11.23;6.40;;;;;;;9.14;60.25;94390.50;6164999;23;20542;-84
2022/09/24 07:08:32;;;;;;;10.30;6.50;;;;;;;9.22;60.11;94387.19;6164933;23;20006;-84
2022/09/24 07:10:59;;;;;;;15.70;7.15;;;;;;;9.31;59.85;94389.94;6163758;23;20318;-85
2022/09/24 07:13:25;;;;;;;9.93;7.05;;;;;;;9.40;59.50;94398.03;6165259;23;19998;-86
2022/09/24 07:15:51;;;;;;;11.90;6.90;;;;;;;9.48;59.36;94401.91;6165530;23;20314;-85
2022/09/24 07:18:18;;;;;;;12.95;6.18;;;;;;;9.54;58.67;94392.75;6165321;23;20021;-84
2022/09/24 07:20:49;;;;;;;8.07;5.45;;;;;;;9.62;58.02;94392.88;6164683;23;20318;-85
2022/09/24 07:23:17;;;;;;;8.45;5.07;;;;;;;9.69;58.04;94392.50;6165047;23;19998;-84
2022/09/24 07:25:42;;;;;;;9.25;4.82;;;;;;;9.76;57.77;94382.25;6164977;23;20064;-87
2022/09/24 07:28:11;;;;;;;6.90;4.85;;;;;;;9.94;58.59;94387.78;6165619;23;20009;-89
2022/09/24 07:30:39;;;;;;;10.27;4.65;;;;;;;10.03;58.33;94386.00;6165201;23;20016;-88
2022/09/24 07:33:06;;;;;;;10.48;4.72;;;;;;;10.13;57.43;94387.69;6165776;23;20024;-89
2022/09/24 07:35:33;;;;;;;9.65;4.30;;;;;;;10.24;56.63;94381.06;6165176;23;20021;-88
2022/09/24 07:38:04;;;;;;;8.88;5.13;;;;;;;10.28;55.96;94383.91;6164800;23;19997;-88
2022/09/24 07:40:30;;;;;;;10.70;4.75;;;;;;;10.44;55.64;94387.88;6165195;23;20304;-88
2022/09/24 07:43:01;;;;;;;13.02;4.30;;;;;;;10.54;56.23;94385.00;6165012;23;20064;-89
2022/09/24 07:45:28;;;;;;;7.88;3.92;;;;;;;10.55;55.31;94389.25;6165055;23;20004;-84
2022/09/24 07:48:01;;;;;;;9.77;4.20;;;;;;;10.64;55.10;94375.97;6163141;23;20009;-84
2022/09/24 07:50:29;;;;;;;12.35;4.25;;;;;;;10.77;54.10;94375.16;6164450;23;19993;-83
2022/09/24 07:52:55;;;;;;;10.93;4.30;;;;;;;10.82;53.98;94382.25;6166575;23;20009;-83
2022/09/24 07:55:24;;;;;;;11.07;4.65;;;;;;;10.92;54.24;94379.34;6166486;23;19997;-82
2022/09/24 07:57:52;;;;;;;9.32;4.13;;;;;;;11.03;54.32;94378.03;6166332;23;20007;-81
2022/09/24 08:00:19;;;;;;;8.38;4.93;;;;;;;11.14;53.61;94377.81;6166180;23;20009;-80
2022/09/24 08:02:46;;;;;;;7.97;4.20;;;;;;;11.25;53.58;94371.13;6166307;23;20005;-81
2022/09/24 08:05:16;;;;;;;9.30;4.13;;;;;;;11.31;53.53;94385.91;6166495;23;19997;-80
2022/09/24 08:07:49;;;;;;;11.68;4.05;;;;;;;11.43;53.16;94374.69;6166763;23;20024;-81
2022/09/24 08:10:15;;;;;;;6.25;4.05;;;;;;;11.47;52.67;94372.19;6166455;23;20044;-82
2022/09/24 08:12:41;;;;;;;11.60;4.88;;;;;;;11.57;52.48;94377.28;6166580;23;20295;-81
2022/09/24 08:15:07;;;;;;;8.82;3.90;;;;;;;11.69;51.71;94380.16;6166220;23;20008;-81
2022/09/24 08:17:32;;;;;;;8.80;4.53;;;;;;;11.71;50.82;94379.88;6166595;23;20195;-81
2022/09/24 08:19:58;;;;;;;12.10;4.78;;;;;;;11.68;50.96;94375.91;6165656;23;19997;-81
2022/09/24 08:22:25;;;;;;;7.82;4.80;;;;;;;11.76;51.10;94382.38;6166100;23;20001;-81
2022/09/24 08:24:51;;;;;;;11.52;4.53;;;;;;;11.83;51.23;94378.19;6166748;23;20021;-81
2022/09/24 08:27:19;;;;;;;8.88;4.13;;;;;;;11.91;50.60;94374.00;6166379;23;20008;-81
2022/09/24 08:29:45;;;;;;;16.83;4.85;;;;;;;12.00;50.37;94376.72;6166250;23;19998;-81
2022/09/24 08:32:12;;;;;;;12.98;5.30;;;;;;;12.10;49.47;94375.66;6166772;23;19997;-82
2022/09/24 08:34:39;;;;;;;9.38;3.75;;;;;;;12.09;48.86;94363.38;6166435;23;20009;-82
2022/09/24 08:37:05;;;;;;;9.35;4.43;;;;;;;12.13;48.42;94370.47;6166333;23;20231;-81
2022/09/24 08:39:32;;;;;;;7.00;3.78;;;;;;;12.19;48.67;94374.59;6164526;23;20001;-82
2022/09/24 08:42:05;;;;;;;13.75;4.90;;;;;;;12.19;49.03;94369.25;6166200;23;20004;-82
2022/09/24 08:47:59;;;;;;;8.18;4.57;;;;;;;12.39;48.06;94369.75;6166240;23;20116;-82
2022/09/24 08:50:27;;;;;;;17.63;5.32;;;;;;;12.44;48.42;94366.94;6166361;23;20227;-82
2022/09/24 08:53:02;;;;;;;7.10;4.18;;;;;;;12.45;48.24;94365.81;6165767;23;20004;-80
2022/09/24 08:55:34;;;;;;;19.73;5.05;;;;;;;12.58;47.53;94358.78;6165662;23;20237;-81
2022/09/24 08:58:24;;;;;;;7.45;4.07;;;;;;;12.72;47.47;94354.09;6166009;23;20013;-81
2022/09/24 09:01:01;;;;;;;13.48;4.47;;;;;;;12.77;47.79;94355.81;6165693;23;20211;-81
2022/09/24 09:03:35;;;;;;;13.60;5.07;;;;;;;12.82;46.88;94344.94;6165408;23;20001;-80
2022/09/24 09:06:03;;;;;;;6.43;3.55;;;;;;;12.90;46.33;94344.16;6165579;23;20021;-81
2022/09/24 09:08:55;;;;;;;6.80;3.90;;;;;;;13.02;45.59;94336.28;6165660;23;20056;-81
2022/09/24 09:11:27;;;;;;;12.05;4.05;;;;;;;13.14;44.46;94326.81;6165422;23;19993;-81
2022/09/24 09:14:12;;;;;;;13.70;5.95;;;;;;;13.28;44.97;94337.34;6165712;23;20001;-81
2022/09/24 09:16:48;;;;;;;9.18;3.25;;;;;;;13.41;43.73;94342.56;6165488;23;20235;-81
2022/09/24 09:19:15;;;;;;;8.18;3.35;;;;;;;13.56;42.94;94349.28;6166465;23;20002;-81
2022/09/24 09:21:45;;;;;;;6.78;3.17;;;;;;;13.69;42.50;94347.50;6165994;23;19993;-81
2022/09/24 09:24:24;;;;;;;6.97;2.92;;;;;;;13.84;42.07;94348.91;6166290;23;20240;-78
2022/09/24 09:26:54;;;;;;;8.98;3.10;;;;;;;13.98;43.17;94338.75;6165115;23;20048;-76
2022/09/24 09:29:24;;;;;;;9.02;3.15;;;;;;;14.13;43.84;94342.00;6165391;23;20021;-76
2022/09/24 09:32:27;;;;;;;10.40;2.67;;;;;;;14.27;42.39;94336.38;6165032;23;20184;-77
2022/09/24 09:34:59;;;;;;;7.15;2.90;;;;;;;14.41;41.81;94334.22;6165087;23;20002;-76
2022/09/24 09:37:48;;;;;;;7.68;3.97;;;;;;;14.53;41.30;94331.66;6165284;23;20004;-76
2022/09/24 09:40:23;;;;;;;9.07;3.65;;;;;;;14.58;40.34;94328.78;6165252;23;20002;-77
2022/09/24 09:42:48;;;;;;;7.20;3.53;;;;;;;14.66;40.49;94332.53;6165334;23;20313;-77
2022/09/24 09:45:38;;;;;;;7.72;3.03;;;;;;;14.77;40.74;94322.97;6165011;23;20184;-77
2022/09/24 09:48:04;;;;;;;12.15;5.55;;;;;;;14.78;39.97;94315.72;6163881;23;20172;-77
2022/09/24 09:50:43;;;;;;;7.18;3.53;;;;;;;14.90;39.30;94306.91;6165028;23;19997;-77
2022/09/24 09:53:26;;;;;;;7.15;3.03;;;;;;;15.01;39.70;94316.16;6165535;23;20223;-81
2022/09/24 09:55:56;;;;;;;11.20;3.67;;;;;;;15.01;39.94;94303.50;6165020;23;20317;-82
2022/09/24 09:58:31;;;;;;;14.90;3.15;;;;;;;15.10;39.75;94302.66;6165194;23;20045;-82
2022/09/24 10:01:07;;;;;;;6.22;3.47;;;;;;;15.21;39.74;94293.06;6165336;23;20294;-82
2022/09/24 10:03:45;;;;;;;9.88;3.10;;;;;;;15.28;39.91;94290.63;6165482;23;20692;-83
2022/09/24 10:06:13;;;;;;;12.80;2.70;;;;;;;15.43;38.20;94292.69;6165964;23;20002;-83
2022/09/24 10:08:39;;;;;;;5.20;3.33;;;;;;;15.48;38.58;94291.66;6165539;23;20000;-82
2022/09/24 10:11:12;;;;;;;11.20;3.15;;;;;;;15.49;38.67;94287.06;6165298;23;19994;-81
2022/09/24 10:13:37;;;;;;;9.35;3.72;;;;;;;15.63;38.79;94290.22;6164941;23;20040;-79
2022/09/24 10:16:07;;;;;;;8.07;3.40;;;;;;;15.73;37.91;94289.03;6164461;23;20009;-82
2022/09/24 10:18:48;;;;;;;21.70;4.10;;;;;;;15.85;37.98;94275.63;6165226;23;20006;-82
2022/09/24 10:21:29;;;;;;;16.60;3.78;;;;;;;15.96;38.28;94270.59;6165305;23;20048;-81
2022/09/24 10:23:59;;;;;;;7.90;3.30;;;;;;;16.08;38.14;94267.91;6165535;23;20036;-81
2022/09/24 10:26:36;;;;;;;15.63;3.28;;;;;;;16.20;37.12;94277.84;6165460;23;20021;-81
2022/09/24 10:31:48;;;;;;;6.22;2.70;;;;;;;16.38;36.56;94268.38;6165029;23;20041;-79
2022/09/24 10:34:25;;;;;;;19.33;3.63;;;;;;;16.44;36.06;94268.94;6165232;23;19997;-80
2022/09/24 10:37:02;;;;;;;8.52;3.25;;;;;;;16.47;35.71;94262.91;6165177;23;20034;-80
2022/09/24 10:39:29;;;;;;;6.80;2.88;;;;;;;16.56;34.99;94263.53;6165467;23;19998;-81
2022/09/24 10:41:56;;;;;;;14.13;2.90;;;;;;;16.66;35.38;94262.28;6163814;23;20349;-81
2022/09/24 10:44:23;;;;;;;13.52;2.90;;;;;;;16.82;37.37;94265.06;6165043;23;20002;-81
2022/09/24 10:47:10;;;;;;;4.80;2.70;;;;;;;16.99;35.49;94264.75;6164921;23;20002;-78
2022/09/24 10:49:59;;;;;;;5.15;2.40;;;;;;;17.14;35.63;94263.25;6163704;23;20370;-79
2022/09/24 10:52:46;;;;;;;7.88;2.83;;;;;;;17.22;34.77;94264.22;6165118;23;20006;-79
2022/09/24 10:55:53;;;;;;;4.93;2.90;;;;;;;17.36;34.70;94253.00;6162641;23;20198;-79
2022/09/24 10:58:42;;;;;;;11.40;2.80;;;;;;;17.50;33.94;94258.75;6164958;23;20306;-79
2022/09/24 11:01:31;;;;;;;11.93;2.67;;;;;;;17.61;33.12;94250.97;6163671;23;20208;-80
2022/09/24 11:04:09;;;;;;;5.40;2.75;;;;;;;17.68;33.91;94259.19;6163329;23;20252;-79
2022/09/24 11:06:52;;;;;;;23.98;4.13;;;;;;;17.80;33.28;94261.03;6163039;23;20001;-79
2022/09/24 11:09:46;;;;;;;8.38;2.63;;;;;;;17.87;33.24;94258.56;6163068;23;20013;-78
2022/09/24 11:12:53;;;;;;;15.73;2.47;;;;;;;17.80;32.09;94248.31;6161862;23;20002;-79
2022/09/24 11:15:30;;;;;;;7.22;2.53;;;;;;;17.78;31.74;94258.69;6044961;23;20003;-80
2022/09/24 11:18:24;;;;;;;8.57;2.33;;;;;;;17.71;33.02;94250.44;6046468;23;20067;-78
2022/09/24 11:21:05;;;;;;;6.88;2.13;;;;;;;17.82;30.71;94246.06;6092978;23;20291;-78
2022/09/24 11:24:01;;;;;;;3.10;1.58;;;;;;;17.76;29.81;94235.91;6164985;23;19997;-79
2022/09/24 11:26:37;;;;;;;5.60;2.42;;;;;;;17.84;28.96;94229.56;6165507;23;20005;-79
2022/09/24 11:29:14;;;;;;;4.68;1.73;;;;;;;17.69;28.66;94233.81;6166594;23;20003;-79
2022/09/24 11:32:14;;;;;;;4.80;1.52;;;;;;;17.69;28.03;94222.25;6166588;23;20064;-79
2022/09/24 11:35:05;;;;;;;4.50;1.52;;;;;;;17.59;28.17;94220.88;6121488;23;20044;-80
2022/09/24 11:37:58;;;;;;;3.42;1.63;;;;;;;17.61;28.63;94215.91;6166415;23;20228;-78
2022/09/24 11:40:39;;;;;;;8.15;1.73;;;;;;;17.65;28.50;94212.16;6166292;23;20185;-78
2022/09/24 11:43:41;;;;;;;3.58;1.80;;;;;;;17.79;28.83;94211.72;6166446;23;20001;-79
2022/09/24 11:46:19;;;;;;;4.32;1.40;;;;;;;17.83;28.40;94199.16;6166678;23;19993;-79
2022/09/24 11:48:56;;;;;;;5.78;1.58;;;;;;;17.97;28.00;94211.38;6166534;23;19997;-78
2022/09/24 11:51:21;;;;;;;8.45;1.67;;;;;;;18.06;27.17;94192.31;6166382;23;19997;-78
2022/09/24 11:54:18;;;;;;;4.70;1.40;;;;;;;18.13;28.69;94204.03;6166552;23;20001;-79
2022/09/24 11:56:49;;;;;;;2.63;1.75;;;;;;;18.28;27.61;94204.31;6166466;23;20006;-79
2022/09/24 11:59:59;;;;;;;2.10;1.13;;;;;;;18.37;27.17;94180.63;6166787;23;20020;-79
2022/09/24 12:02:54;;;;;;;3.53;1.80;;;;;;;18.77;29.68;94196.47;6101640;23;20074;-79
2022/09/24 12:05:32;;;;;;;4.13;2.47;;;;;;;19.04;29.93;94196.59;6166463;23;20021;-79
2022/09/24 12:08:26;;;;;;;3.67;1.65;;;;;;;19.33;29.23;94197.09;6164917;23;20359;-80
2022/09/24 12:11:15;;;;;;;5.90;1.95;;;;;;;19.60;28.08;94196.03;6166352;23;20053;-79